sensor_id;sensor_type;location;lat;lon;timestamp;temperature;humidity
38458;DHT22;24239;48.058;10.486;2022-11-15T00:01:18;4.80;99.90
38458;DHT22;24239;48.058;10.486;2022-11-15T00:03:44;4.70;99.90
38458;DHT22;24239;48.058;10.486;2022-11-15T00:06:10;4.70;99.90
38458;DHT22;24239;48.058;10.486;2022-11-15T00:08:36;4.70;99.90
38458;DHT22;24239;48.058;10.486;2022-11-15T00:11:02;4.70;99.90
38458;DHT22;24239;48.058;10.486;2022-11-15T00:13:28;4.70;99.90
38458;DHT22;24239;48.058;10.486;2022-11-15T00:15:58;4.70;99.90
38458;DHT22;24239;48.058;10.486;2022-11-15T00:18:24;4.70;99.90
38458;DHT22;24239;48.058;10.486;2022-11-15T00:20:49;4.70;99.90
38458;DHT22;24239;48.058;10.486;2022-11-15T00:23:15;4.60;99.90
38458;DHT22;24239;48.058;10.486;2022-11-15T00:25:41;4.70;99.90
38458;DHT22;24239;48.058;10.486;2022-11-15T00:28:07;4.70;99.90
38458;DHT22;24239;48.058;10.486;2022-11-15T00:30:33;4.50;99.90
38458;DHT22;24239;48.058;10.486;2022-11-15T00:33:06;4.60;99.90
38458;DHT22;24239;48.058;10.486;2022-11-15T00:35:32;4.40;99.90
38458;DHT22;24239;48.058;10.486;2022-11-15T00:37:59;4.30;99.90
38458;DHT22;24239;48.058;10.486;2022-11-15T00:40:24;4.40;99.90
38458;DHT22;24239;48.058;10.486;2022-11-15T00:42:50;4.30;99.90
38458;DHT22;24239;48.058;10.486;2022-11-15T00:45:16;4.30;99.90
38458;DHT22;24239;48.058;10.486;2022-11-15T00:47:45;4.20;99.90
38458;DHT22;24239;48.058;10.486;2022-11-15T00:50:11;4.10;99.90
38458;DHT22;24239;48.058;10.486;2022-11-15T00:52:37;4.00;99.90
38458;DHT22;24239;48.058;10.486;2022-11-15T00:55:03;4.10;99.90
38458;DHT22;24239;48.058;10.486;2022-11-15T00:57:28;4.00;99.90
38458;DHT22;24239;48.058;10.486;2022-11-15T00:59:54;4.00;99.90
38458;DHT22;24239;48.058;10.486;2022-11-15T01:02:20;3.90;99.90
38458;DHT22;24239;48.058;10.486;2022-11-15T01:04:45;3.80;99.90
38458;DHT22;24239;48.058;10.486;2022-11-15T01:07:11;3.90;99.90
38458;DHT22;24239;48.058;10.486;2022-11-15T01:09:37;3.80;99.90
38458;DHT22;24239;48.058;10.486;2022-11-15T01:12:03;3.90;99.90
38458;DHT22;24239;48.058;10.486;2022-11-15T01:14:28;3.80;99.90
38458;DHT22;24239;48.058;10.486;2022-11-15T01:16:57;3.80;99.90
38458;DHT22;24239;48.058;10.486;2022-11-15T01:19:22;3.70;99.90
38458;DHT22;24239;48.058;10.486;2022-11-15T01:21:48;3.70;99.90
38458;DHT22;24239;48.058;10.486;2022-11-15T01:24:14;3.50;99.90
38458;DHT22;24239;48.058;10.486;2022-11-15T01:26:39;3.50;99.90
38458;DHT22;24239;48.058;10.486;2022-11-15T01:29:05;3.50;99.90
38458;DHT22;24239;48.058;10.486;2022-11-15T01:31:31;3.40;99.90
38458;DHT22;24239;48.058;10.486;2022-11-15T01:33:56;3.30;99.90
38458;DHT22;24239;48.058;10.486;2022-11-15T01:36:22;3.30;99.90
38458;DHT22;24239;48.058;10.486;2022-11-15T01:38:55;3.20;99.90
38458;DHT22;24239;48.058;10.486;2022-11-15T01:41:22;3.10;99.90
38458;DHT22;24239;48.058;10.486;2022-11-15T01:43:49;3.10;99.90
38458;DHT22;24239;48.058;10.486;2022-11-15T01:48:40;3.00;99.90
38458;DHT22;24239;48.058;10.486;2022-11-15T01:51:07;3.00;99.90
38458;DHT22;24239;48.058;10.486;2022-11-15T01:53:33;3.00;99.90
38458;DHT22;24239;48.058;10.486;2022-11-15T01:55:59;3.00;99.90
38458;DHT22;24239;48.058;10.486;2022-11-15T01:58:27;2.90;99.90
38458;DHT22;24239;48.058;10.486;2022-11-15T02:00:52;2.70;99.90
38458;DHT22;24239;48.058;10.486;2022-11-15T02:03:18;2.80;99.90
38458;DHT22;24239;48.058;10.486;2022-11-15T02:05:44;2.70;99.90
38458;DHT22;24239;48.058;10.486;2022-11-15T02:08:10;2.60;99.90
38458;DHT22;24239;48.058;10.486;2022-11-15T02:10:45;2.60;99.90
38458;DHT22;24239;48.058;10.486;2022-11-15T02:13:12;2.60;99.90
38458;DHT22;24239;48.058;10.486;2022-11-15T02:15:40;2.70;99.90
38458;DHT22;24239;48.058;10.486;2022-11-15T02:18:11;2.90;99.90
38458;DHT22;24239;48.058;10.486;2022-11-15T02:36:00;2.60;99.90
38458;DHT22;24239;48.058;10.486;2022-11-15T02:38:29;2.50;99.90
38458;DHT22;24239;48.058;10.486;2022-11-15T02:40:57;2.40;99.90
38458;DHT22;24239;48.058;10.486;2022-11-15T02:44:00;2.40;99.90
38458;DHT22;24239;48.058;10.486;2022-11-15T02:49:10;2.30;99.90
38458;DHT22;24239;48.058;10.486;2022-11-15T02:51:36;2.30;99.90
38458;DHT22;24239;48.058;10.486;2022-11-15T02:54:02;2.20;99.90
38458;DHT22;24239;48.058;10.486;2022-11-15T02:56:27;2.30;99.90
38458;DHT22;24239;48.058;10.486;2022-11-15T02:58:57;2.20;99.90
38458;DHT22;24239;48.058;10.486;2022-11-15T03:04:02;2.30;99.90
38458;DHT22;24239;48.058;10.486;2022-11-15T03:11:50;2.10;99.90
38458;DHT22;24239;48.058;10.486;2022-11-15T03:14:21;2.20;99.90
38458;DHT22;24239;48.058;10.486;2022-11-15T03:21:49;2.10;99.90
38458;DHT22;24239;48.058;10.486;2022-11-15T03:24:16;2.10;99.90
38458;DHT22;24239;48.058;10.486;2022-11-15T03:26:43;2.00;99.90
38458;DHT22;24239;48.058;10.486;2022-11-15T03:31:37;1.90;99.90
38458;DHT22;24239;48.058;10.486;2022-11-15T03:34:26;1.90;99.90
38458;DHT22;24239;48.058;10.486;2022-11-15T03:36:52;1.90;99.90
38458;DHT22;24239;48.058;10.486;2022-11-15T03:39:18;1.90;99.90
38458;DHT22;24239;48.058;10.486;2022-11-15T03:44:15;1.90;99.90
38458;DHT22;24239;48.058;10.486;2022-11-15T03:46:46;2.00;99.90
38458;DHT22;24239;48.058;10.486;2022-11-15T03:49:17;1.90;99.90
38458;DHT22;24239;48.058;10.486;2022-11-15T03:51:45;1.90;99.90
38458;DHT22;24239;48.058;10.486;2022-11-15T03:54:11;2.00;99.90
38458;DHT22;24239;48.058;10.486;2022-11-15T03:56:37;1.90;99.90
38458;DHT22;24239;48.058;10.486;2022-11-15T03:59:03;2.00;99.90
38458;DHT22;24239;48.058;10.486;2022-11-15T04:01:29;2.00;99.90
38458;DHT22;24239;48.058;10.486;2022-11-15T04:03:54;1.90;99.90
38458;DHT22;24239;48.058;10.486;2022-11-15T04:06:20;1.90;99.90
38458;DHT22;24239;48.058;10.486;2022-11-15T04:08:45;1.90;99.90
38458;DHT22;24239;48.058;10.486;2022-11-15T04:11:11;1.90;99.90
38458;DHT22;24239;48.058;10.486;2022-11-15T04:13:37;2.00;99.90
38458;DHT22;24239;48.058;10.486;2022-11-15T04:16:03;1.90;99.90
38458;DHT22;24239;48.058;10.486;2022-11-15T04:18:28;2.00;99.90
38458;DHT22;24239;48.058;10.486;2022-11-15T04:20:54;2.00;99.90
38458;DHT22;24239;48.058;10.486;2022-11-15T04:23:38;1.90;99.90
38458;DHT22;24239;48.058;10.486;2022-11-15T04:26:22;1.90;99.90
38458;DHT22;24239;48.058;10.486;2022-11-15T04:28:48;1.90;99.90
38458;DHT22;24239;48.058;10.486;2022-11-15T04:31:33;1.80;99.90
38458;DHT22;24239;48.058;10.486;2022-11-15T04:33:58;1.80;99.90
38458;DHT22;24239;48.058;10.486;2022-11-15T04:36:24;1.90;99.90
38458;DHT22;24239;48.058;10.486;2022-11-15T04:39:08;1.80;99.90
38458;DHT22;24239;48.058;10.486;2022-11-15T04:41:34;1.90;99.90
38458;DHT22;24239;48.058;10.486;2022-11-15T04:44:00;1.70;99.90
38458;DHT22;24239;48.058;10.486;2022-11-15T04:46:26;1.60;99.90
38458;DHT22;24239;48.058;10.486;2022-11-15T04:48:52;1.60;99.90
38458;DHT22;24239;48.058;10.486;2022-11-15T04:51:18;1.60;99.90
38458;DHT22;24239;48.058;10.486;2022-11-15T04:53:43;1.70;99.90
38458;DHT22;24239;48.058;10.486;2022-11-15T04:56:09;1.70;99.90
38458;DHT22;24239;48.058;10.486;2022-11-15T04:58:35;1.70;99.90
38458;DHT22;24239;48.058;10.486;2022-11-15T05:01:13;1.80;99.90
38458;DHT22;24239;48.058;10.486;2022-11-15T05:03:43;1.60;99.90
38458;DHT22;24239;48.058;10.486;2022-11-15T05:06:27;1.60;99.90
38458;DHT22;24239;48.058;10.486;2022-11-15T05:08:53;1.50;99.90
38458;DHT22;24239;48.058;10.486;2022-11-15T05:11:19;1.50;99.90
38458;DHT22;24239;48.058;10.486;2022-11-15T05:13:45;1.30;99.90
38458;DHT22;24239;48.058;10.486;2022-11-15T05:16:11;1.30;99.90
38458;DHT22;24239;48.058;10.486;2022-11-15T05:18:37;1.30;99.90
38458;DHT22;24239;48.058;10.486;2022-11-15T05:21:12;1.40;99.90
38458;DHT22;24239;48.058;10.486;2022-11-15T05:23:38;1.20;99.90
38458;DHT22;24239;48.058;10.486;2022-11-15T05:26:04;1.30;99.90
38458;DHT22;24239;48.058;10.486;2022-11-15T05:28:30;1.10;99.90
38458;DHT22;24239;48.058;10.486;2022-11-15T05:31:00;1.10;99.90
38458;DHT22;24239;48.058;10.486;2022-11-15T05:33:26;1.10;99.90
38458;DHT22;24239;48.058;10.486;2022-11-15T05:35:54;1.10;99.90
38458;DHT22;24239;48.058;10.486;2022-11-15T05:38:23;1.00;99.90
38458;DHT22;24239;48.058;10.486;2022-11-15T05:40:49;1.10;99.90
38458;DHT22;24239;48.058;10.486;2022-11-15T05:43:14;1.00;99.90
38458;DHT22;24239;48.058;10.486;2022-11-15T05:45:40;1.10;99.90
38458;DHT22;24239;48.058;10.486;2022-11-15T05:48:06;0.90;99.90
38458;DHT22;24239;48.058;10.486;2022-11-15T05:50:34;0.90;99.90
38458;DHT22;24239;48.058;10.486;2022-11-15T05:53:01;1.00;99.90
38458;DHT22;24239;48.058;10.486;2022-11-15T05:55:27;0.90;99.90
38458;DHT22;24239;48.058;10.486;2022-11-15T05:57:52;1.00;99.90
38458;DHT22;24239;48.058;10.486;2022-11-15T06:00:18;1.00;99.90
38458;DHT22;24239;48.058;10.486;2022-11-15T06:02:44;0.90;99.90
38458;DHT22;24239;48.058;10.486;2022-11-15T06:05:09;0.90;99.90
38458;DHT22;24239;48.058;10.486;2022-11-15T06:07:35;0.90;99.90
38458;DHT22;24239;48.058;10.486;2022-11-15T06:10:01;1.00;99.90
38458;DHT22;24239;48.058;10.486;2022-11-15T06:12:26;1.00;99.90
38458;DHT22;24239;48.058;10.486;2022-11-15T06:14:52;0.90;99.90
38458;DHT22;24239;48.058;10.486;2022-11-15T06:17:18;0.90;99.90
38458;DHT22;24239;48.058;10.486;2022-11-15T06:19:43;0.90;99.90
38458;DHT22;24239;48.058;10.486;2022-11-15T06:22:09;1.00;99.90
38458;DHT22;24239;48.058;10.486;2022-11-15T06:24:35;1.00;99.90
38458;DHT22;24239;48.058;10.486;2022-11-15T06:27:00;1.20;99.90
38458;DHT22;24239;48.058;10.486;2022-11-15T06:29:26;1.00;99.90
38458;DHT22;24239;48.058;10.486;2022-11-15T06:31:52;1.00;99.90
38458;DHT22;24239;48.058;10.486;2022-11-15T06:34:18;1.10;99.90
38458;DHT22;24239;48.058;10.486;2022-11-15T06:36:44;1.10;99.90
38458;DHT22;24239;48.058;10.486;2022-11-15T06:39:09;1.30;99.90
38458;DHT22;24239;48.058;10.486;2022-11-15T06:41:35;1.10;99.90
38458;DHT22;24239;48.058;10.486;2022-11-15T06:44:01;1.10;99.90
38458;DHT22;24239;48.058;10.486;2022-11-15T06:46:27;1.10;99.90
38458;DHT22;24239;48.058;10.486;2022-11-15T06:48:53;1.20;99.90
38458;DHT22;24239;48.058;10.486;2022-11-15T06:51:19;1.20;99.90
38458;DHT22;24239;48.058;10.486;2022-11-15T06:53:44;1.30;99.90
38458;DHT22;24239;48.058;10.486;2022-11-15T06:56:10;1.30;99.90
38458;DHT22;24239;48.058;10.486;2022-11-15T06:58:36;1.30;99.90
38458;DHT22;24239;48.058;10.486;2022-11-15T07:01:03;1.40;99.90
38458;DHT22;24239;48.058;10.486;2022-11-15T07:03:29;1.40;99.90
38458;DHT22;24239;48.058;10.486;2022-11-15T07:05:56;1.50;99.90
38458;DHT22;24239;48.058;10.486;2022-11-15T07:08:26;1.50;99.90
38458;DHT22;24239;48.058;10.486;2022-11-15T07:10:52;1.60;99.90
38458;DHT22;24239;48.058;10.486;2022-11-15T07:13:18;1.70;99.90
38458;DHT22;24239;48.058;10.486;2022-11-15T07:15:44;1.70;99.90
38458;DHT22;24239;48.058;10.486;2022-11-15T07:18:09;1.80;99.90
38458;DHT22;24239;48.058;10.486;2022-11-15T07:20:35;1.70;99.90
38458;DHT22;24239;48.058;10.486;2022-11-15T07:23:01;1.80;99.90
38458;DHT22;24239;48.058;10.486;2022-11-15T07:25:27;2.00;99.90
38458;DHT22;24239;48.058;10.486;2022-11-15T07:27:54;2.10;99.90
38458;DHT22;24239;48.058;10.486;2022-11-15T07:30:19;2.20;99.90
38458;DHT22;24239;48.058;10.486;2022-11-15T07:32:45;2.40;99.90
38458;DHT22;24239;48.058;10.486;2022-11-15T07:35:11;2.40;99.90
38458;DHT22;24239;48.058;10.486;2022-11-15T07:37:37;2.50;99.90
38458;DHT22;24239;48.058;10.486;2022-11-15T07:40:03;2.50;99.90
38458;DHT22;24239;48.058;10.486;2022-11-15T07:42:30;2.60;99.90
38458;DHT22;24239;48.058;10.486;2022-11-15T07:45:15;2.70;99.90
38458;DHT22;24239;48.058;10.486;2022-11-15T07:47:41;2.70;99.90
38458;DHT22;24239;48.058;10.486;2022-11-15T07:50:10;2.70;99.90
38458;DHT22;24239;48.058;10.486;2022-11-15T07:52:36;2.80;99.90
38458;DHT22;24239;48.058;10.486;2022-11-15T07:55:01;2.90;99.90
38458;DHT22;24239;48.058;10.486;2022-11-15T07:57:28;3.00;99.90
38458;DHT22;24239;48.058;10.486;2022-11-15T07:59:54;3.10;99.90
38458;DHT22;24239;48.058;10.486;2022-11-15T08:02:20;3.20;99.90
38458;DHT22;24239;48.058;10.486;2022-11-15T08:04:46;3.30;99.90
38458;DHT22;24239;48.058;10.486;2022-11-15T08:07:12;3.40;99.90
38458;DHT22;24239;48.058;10.486;2022-11-15T08:09:38;3.60;99.90
38458;DHT22;24239;48.058;10.486;2022-11-15T08:12:06;3.50;99.90
38458;DHT22;24239;48.058;10.486;2022-11-15T08:14:32;3.60;99.90
38458;DHT22;24239;48.058;10.486;2022-11-15T08:16:58;3.80;99.90
38458;DHT22;24239;48.058;10.486;2022-11-15T08:19:23;3.80;99.90
38458;DHT22;24239;48.058;10.486;2022-11-15T08:21:49;4.00;99.90
38458;DHT22;24239;48.058;10.486;2022-11-15T08:24:15;4.20;99.90
38458;DHT22;24239;48.058;10.486;2022-11-15T08:26:40;4.10;99.90
38458;DHT22;24239;48.058;10.486;2022-11-15T08:29:06;4.20;99.90
38458;DHT22;24239;48.058;10.486;2022-11-15T08:31:34;4.50;99.90
38458;DHT22;24239;48.058;10.486;2022-11-15T08:34:00;4.60;99.90
38458;DHT22;24239;48.058;10.486;2022-11-15T08:36:26;4.80;99.90
38458;DHT22;24239;48.058;10.486;2022-11-15T08:38:51;4.80;99.90
38458;DHT22;24239;48.058;10.486;2022-11-15T08:41:21;5.00;99.90
38458;DHT22;24239;48.058;10.486;2022-11-15T08:43:49;5.10;99.90
38458;DHT22;24239;48.058;10.486;2022-11-15T08:46:15;5.20;99.90
38458;DHT22;24239;48.058;10.486;2022-11-15T08:48:41;5.40;99.90
38458;DHT22;24239;48.058;10.486;2022-11-15T08:51:07;5.50;99.90
38458;DHT22;24239;48.058;10.486;2022-11-15T08:53:33;5.80;99.90
38458;DHT22;24239;48.058;10.486;2022-11-15T08:55:59;6.00;99.90
38458;DHT22;24239;48.058;10.486;2022-11-15T08:58:24;6.20;99.90
38458;DHT22;24239;48.058;10.486;2022-11-15T09:00:50;6.30;99.90
38458;DHT22;24239;48.058;10.486;2022-11-15T09:03:16;6.60;99.90
38458;DHT22;24239;48.058;10.486;2022-11-15T09:05:41;6.60;99.90
38458;DHT22;24239;48.058;10.486;2022-11-15T09:08:07;6.80;99.90
38458;DHT22;24239;48.058;10.486;2022-11-15T09:10:33;6.80;99.90
38458;DHT22;24239;48.058;10.486;2022-11-15T09:12:58;6.90;99.90
38458;DHT22;24239;48.058;10.486;2022-11-15T09:15:24;7.10;99.90
38458;DHT22;24239;48.058;10.486;2022-11-15T09:17:50;7.10;99.90
38458;DHT22;24239;48.058;10.486;2022-11-15T09:20:16;7.20;99.90
38458;DHT22;24239;48.058;10.486;2022-11-15T09:22:42;7.30;99.90
38458;DHT22;24239;48.058;10.486;2022-11-15T09:25:07;7.50;99.90
38458;DHT22;24239;48.058;10.486;2022-11-15T09:27:33;7.40;99.90
38458;DHT22;24239;48.058;10.486;2022-11-15T09:29:59;7.60;99.90
38458;DHT22;24239;48.058;10.486;2022-11-15T09:32:27;7.70;99.90
38458;DHT22;24239;48.058;10.486;2022-11-15T09:34:53;7.70;99.90
38458;DHT22;24239;48.058;10.486;2022-11-15T09:37:19;7.80;99.90
38458;DHT22;24239;48.058;10.486;2022-11-15T09:39:45;7.80;99.90
38458;DHT22;24239;48.058;10.486;2022-11-15T09:42:20;8.00;99.90
38458;DHT22;24239;48.058;10.486;2022-11-15T09:44:59;8.00;99.90
38458;DHT22;24239;48.058;10.486;2022-11-15T09:47:38;8.20;99.90
38458;DHT22;24239;48.058;10.486;2022-11-15T09:50:09;8.40;99.90
38458;DHT22;24239;48.058;10.486;2022-11-15T09:52:35;8.60;99.90
38458;DHT22;24239;48.058;10.486;2022-11-15T09:55:02;8.70;99.90
38458;DHT22;24239;48.058;10.486;2022-11-15T10:00:33;8.90;99.90
38458;DHT22;24239;48.058;10.486;2022-11-15T10:03:13;9.00;99.90
38458;DHT22;24239;48.058;10.486;2022-11-15T10:05:44;9.10;99.90
38458;DHT22;24239;48.058;10.486;2022-11-15T10:10:46;9.10;99.90
38458;DHT22;24239;48.058;10.486;2022-11-15T10:13:14;9.20;99.90
38458;DHT22;24239;48.058;10.486;2022-11-15T10:15:42;9.30;99.90
38458;DHT22;24239;48.058;10.486;2022-11-15T10:18:14;9.40;99.90
38458;DHT22;24239;48.058;10.486;2022-11-15T10:23:14;9.40;99.90
38458;DHT22;24239;48.058;10.486;2022-11-15T10:25:40;9.50;99.90
38458;DHT22;24239;48.058;10.486;2022-11-15T10:28:11;9.50;99.90
38458;DHT22;24239;48.058;10.486;2022-11-15T10:35:44;9.70;99.90
38458;DHT22;24239;48.058;10.486;2022-11-15T10:38:10;9.80;99.90
38458;DHT22;24239;48.058;10.486;2022-11-15T10:40:37;9.90;99.90
38458;DHT22;24239;48.058;10.486;2022-11-15T10:45:35;10.20;99.90
38458;DHT22;24239;48.058;10.486;2022-11-15T10:50:42;10.30;99.90
38458;DHT22;24239;48.058;10.486;2022-11-15T10:53:21;10.40;99.90
38458;DHT22;24239;48.058;10.486;2022-11-15T10:55:49;10.40;99.90
38458;DHT22;24239;48.058;10.486;2022-11-15T10:58:32;10.50;99.90
38458;DHT22;24239;48.058;10.486;2022-11-15T11:01:12;10.60;99.90
38458;DHT22;24239;48.058;10.486;2022-11-15T11:03:38;10.70;99.90
38458;DHT22;24239;48.058;10.486;2022-11-15T11:08:32;10.70;99.90
38458;DHT22;24239;48.058;10.486;2022-11-15T11:10:59;11.00;99.90
38458;DHT22;24239;48.058;10.486;2022-11-15T11:18:25;11.10;99.90
38458;DHT22;24239;48.058;10.486;2022-11-15T11:21:03;11.20;99.90
38458;DHT22;24239;48.058;10.486;2022-11-15T11:26:37;11.20;99.90
38458;DHT22;24239;48.058;10.486;2022-11-15T11:31:47;11.40;99.90
38458;DHT22;24239;48.058;10.486;2022-11-15T11:34:26;11.40;99.90
38458;DHT22;24239;48.058;10.486;2022-11-15T11:39:24;11.40;99.90
38458;DHT22;24239;48.058;10.486;2022-11-15T11:47:11;11.40;99.90
38458;DHT22;24239;48.058;10.486;2022-11-15T11:49:51;11.40;99.90
38458;DHT22;24239;48.058;10.486;2022-11-15T11:52:22;11.50;99.90
38458;DHT22;24239;48.058;10.486;2022-11-15T11:54:52;11.60;99.90
38458;DHT22;24239;48.058;10.486;2022-11-15T11:59:56;11.60;99.90
38458;DHT22;24239;48.058;10.486;2022-11-15T12:02:27;11.70;99.90
38458;DHT22;24239;48.058;10.486;2022-11-15T12:04:55;11.70;99.90
38458;DHT22;24239;48.058;10.486;2022-11-15T12:07:24;11.80;99.90
38458;DHT22;24239;48.058;10.486;2022-11-15T12:10:04;11.80;99.90
38458;DHT22;24239;48.058;10.486;2022-11-15T12:15:16;11.90;99.90
38458;DHT22;24239;48.058;10.486;2022-11-15T12:17:42;11.90;99.90
38458;DHT22;24239;48.058;10.486;2022-11-15T12:20:19;11.90;99.90
38458;DHT22;24239;48.058;10.486;2022-11-15T12:22:47;11.90;99.90
38458;DHT22;24239;48.058;10.486;2022-11-15T12:25:31;11.90;99.90
38458;DHT22;24239;48.058;10.486;2022-11-15T12:28:07;12.00;99.90
38458;DHT22;24239;48.058;10.486;2022-11-15T12:30:45;12.00;99.90
38458;DHT22;24239;48.058;10.486;2022-11-15T12:36:01;12.00;99.90
38458;DHT22;24239;48.058;10.486;2022-11-15T12:38:49;11.90;99.90
38458;DHT22;24239;48.058;10.486;2022-11-15T12:41:16;11.80;99.90
38458;DHT22;24239;48.058;10.486;2022-11-15T12:43:43;11.90;99.90
38458;DHT22;24239;48.058;10.486;2022-11-15T12:46:20;12.00;99.90
38458;DHT22;24239;48.058;10.486;2022-11-15T12:48:51;12.00;99.90
38458;DHT22;24239;48.058;10.486;2022-11-15T12:51:19;12.00;99.90
38458;DHT22;24239;48.058;10.486;2022-11-15T12:53:45;12.10;99.90
38458;DHT22;24239;48.058;10.486;2022-11-15T13:01:09;12.30;99.90
38458;DHT22;24239;48.058;10.486;2022-11-15T13:03:35;12.30;99.90
38458;DHT22;24239;48.058;10.486;2022-11-15T13:06:02;12.40;99.90
38458;DHT22;24239;48.058;10.486;2022-11-15T13:08:36;12.30;99.90
38458;DHT22;24239;48.058;10.486;2022-11-15T13:11:41;12.40;99.90
38458;DHT22;24239;48.058;10.486;2022-11-15T13:13:56;12.30;99.90
38458;DHT22;24239;48.058;10.486;2022-11-15T13:16:22;12.30;99.90
38458;DHT22;24239;48.058;10.486;2022-11-15T13:18:54;12.30;99.90
38458;DHT22;24239;48.058;10.486;2022-11-15T13:21:21;12.20;99.90
38458;DHT22;24239;48.058;10.486;2022-11-15T13:24:10;12.20;99.90
38458;DHT22;24239;48.058;10.486;2022-11-15T13:26:37;12.10;99.90
38458;DHT22;24239;48.058;10.486;2022-11-15T13:29:04;12.00;99.90
38458;DHT22;24239;48.058;10.486;2022-11-15T13:31:37;12.00;99.90
38458;DHT22;24239;48.058;10.486;2022-11-15T13:36:40;11.80;99.90
38458;DHT22;24239;48.058;10.486;2022-11-15T13:39:12;11.80;99.90
38458;DHT22;24239;48.058;10.486;2022-11-15T13:41:45;11.80;99.90
38458;DHT22;24239;48.058;10.486;2022-11-15T13:44:18;11.80;99.90
38458;DHT22;24239;48.058;10.486;2022-11-15T13:46:44;11.80;99.90
38458;DHT22;24239;48.058;10.486;2022-11-15T13:49:10;11.80;99.90
38458;DHT22;24239;48.058;10.486;2022-11-15T13:51:49;11.80;99.90
38458;DHT22;24239;48.058;10.486;2022-11-15T13:54:27;11.80;99.90
38458;DHT22;24239;48.058;10.486;2022-11-15T13:56:56;11.70;99.90
38458;DHT22;24239;48.058;10.486;2022-11-15T14:01:57;11.70;99.90
38458;DHT22;24239;48.058;10.486;2022-11-15T14:04:24;11.60;99.90
38458;DHT22;24239;48.058;10.486;2022-11-15T14:06:52;11.60;99.90
38458;DHT22;24239;48.058;10.486;2022-11-15T14:12:19;11.60;99.90
38458;DHT22;24239;48.058;10.486;2022-11-15T14:14:47;11.60;99.90
38458;DHT22;24239;48.058;10.486;2022-11-15T14:17:19;11.60;99.90
38458;DHT22;24239;48.058;10.486;2022-11-15T14:19:45;11.60;99.90
38458;DHT22;24239;48.058;10.486;2022-11-15T14:24:37;11.50;99.90
38458;DHT22;24239;48.058;10.486;2022-11-15T14:30:01;11.40;99.90
38458;DHT22;24239;48.058;10.486;2022-11-15T14:32:28;11.40;99.90
38458;DHT22;24239;48.058;10.486;2022-11-15T14:34:55;11.30;99.90
38458;DHT22;24239;48.058;10.486;2022-11-15T14:37:31;11.30;99.90
38458;DHT22;24239;48.058;10.486;2022-11-15T14:39:59;11.30;99.90
38458;DHT22;24239;48.058;10.486;2022-11-15T14:42:25;11.20;99.90
38458;DHT22;24239;48.058;10.486;2022-11-15T14:44:51;11.20;99.90
38458;DHT22;24239;48.058;10.486;2022-11-15T14:47:17;11.10;99.90
38458;DHT22;24239;48.058;10.486;2022-11-15T14:49:43;11.00;99.90
38458;DHT22;24239;48.058;10.486;2022-11-15T14:52:42;11.10;99.90
38458;DHT22;24239;48.058;10.486;2022-11-15T14:55:02;10.90;99.90
38458;DHT22;24239;48.058;10.486;2022-11-15T14:57:29;10.90;99.90
38458;DHT22;24239;48.058;10.486;2022-11-15T14:59:54;10.80;99.90
38458;DHT22;24239;48.058;10.486;2022-11-15T15:02:21;10.70;99.90
38458;DHT22;24239;48.058;10.486;2022-11-15T15:04:50;10.60;99.90
38458;DHT22;24239;48.058;10.486;2022-11-15T15:07:16;10.50;99.90
38458;DHT22;24239;48.058;10.486;2022-11-15T15:09:42;10.40;99.90
38458;DHT22;24239;48.058;10.486;2022-11-15T15:12:15;10.30;99.90
38458;DHT22;24239;48.058;10.486;2022-11-15T15:14:42;10.20;99.90
38458;DHT22;24239;48.058;10.486;2022-11-15T15:17:07;10.20;99.90
38458;DHT22;24239;48.058;10.486;2022-11-15T15:19:33;10.10;99.90
38458;DHT22;24239;48.058;10.486;2022-11-15T15:21:59;10.00;99.90
38458;DHT22;24239;48.058;10.486;2022-11-15T15:24:24;10.00;99.90
38458;DHT22;24239;48.058;10.486;2022-11-15T15:26:50;9.90;99.90
38458;DHT22;24239;48.058;10.486;2022-11-15T15:29:19;9.90;99.90
38458;DHT22;24239;48.058;10.486;2022-11-15T15:31:45;9.80;99.90
38458;DHT22;24239;48.058;10.486;2022-11-15T15:34:11;9.80;99.90
38458;DHT22;24239;48.058;10.486;2022-11-15T15:36:36;9.70;99.90
38458;DHT22;24239;48.058;10.486;2022-11-15T15:39:02;9.70;99.90
38458;DHT22;24239;48.058;10.486;2022-11-15T15:41:28;9.70;99.90
38458;DHT22;24239;48.058;10.486;2022-11-15T15:43:53;9.60;99.90
38458;DHT22;24239;48.058;10.486;2022-11-15T15:46:19;9.60;99.90
38458;DHT22;24239;48.058;10.486;2022-11-15T15:48:45;9.50;99.90
38458;DHT22;24239;48.058;10.486;2022-11-15T15:51:11;9.50;99.90
38458;DHT22;24239;48.058;10.486;2022-11-15T15:53:37;9.40;99.90
38458;DHT22;24239;48.058;10.486;2022-11-15T15:56:03;9.50;99.90
38458;DHT22;24239;48.058;10.486;2022-11-15T15:58:29;9.40;99.90
38458;DHT22;24239;48.058;10.486;2022-11-15T16:00:57;9.30;99.90
38458;DHT22;24239;48.058;10.486;2022-11-15T16:03:25;9.20;99.90
38458;DHT22;24239;48.058;10.486;2022-11-15T16:05:53;9.20;99.90
38458;DHT22;24239;48.058;10.486;2022-11-15T16:08:19;9.20;99.90
38458;DHT22;24239;48.058;10.486;2022-11-15T16:10:45;9.10;99.90
38458;DHT22;24239;48.058;10.486;2022-11-15T16:13:11;9.10;99.90
38458;DHT22;24239;48.058;10.486;2022-11-15T16:15:37;9.10;99.90
38458;DHT22;24239;48.058;10.486;2022-11-15T16:18:03;9.10;99.90
38458;DHT22;24239;48.058;10.486;2022-11-15T16:22:55;9.00;99.90
38458;DHT22;24239;48.058;10.486;2022-11-15T16:25:21;9.00;99.90
38458;DHT22;24239;48.058;10.486;2022-11-15T16:27:47;9.10;99.90
38458;DHT22;24239;48.058;10.486;2022-11-15T16:30:16;9.00;99.90
38458;DHT22;24239;48.058;10.486;2022-11-15T16:32:42;9.00;99.90
38458;DHT22;24239;48.058;10.486;2022-11-15T16:35:12;8.90;99.90
38458;DHT22;24239;48.058;10.486;2022-11-15T16:37:58;8.90;99.90
38458;DHT22;24239;48.058;10.486;2022-11-15T16:40:28;8.90;99.90
38458;DHT22;24239;48.058;10.486;2022-11-15T16:42:58;8.90;99.90
38458;DHT22;24239;48.058;10.486;2022-11-15T16:45:28;8.90;99.90
38458;DHT22;24239;48.058;10.486;2022-11-15T16:47:56;8.80;99.90
38458;DHT22;24239;48.058;10.486;2022-11-15T16:50:23;8.90;99.90
38458;DHT22;24239;48.058;10.486;2022-11-15T16:53:01;8.80;99.90
38458;DHT22;24239;48.058;10.486;2022-11-15T16:55:42;8.80;99.90
38458;DHT22;24239;48.058;10.486;2022-11-15T16:58:15;8.70;99.90
38458;DHT22;24239;48.058;10.486;2022-11-15T17:00:44;8.80;99.90
38458;DHT22;24239;48.058;10.486;2022-11-15T17:03:10;8.70;99.90
38458;DHT22;24239;48.058;10.486;2022-11-15T17:05:36;8.70;99.90
38458;DHT22;24239;48.058;10.486;2022-11-15T17:08:04;8.70;99.90
38458;DHT22;24239;48.058;10.486;2022-11-15T17:10:30;8.70;99.90
38458;DHT22;24239;48.058;10.486;2022-11-15T17:12:56;8.60;99.90
38458;DHT22;24239;48.058;10.486;2022-11-15T17:15:22;8.70;99.90
38458;DHT22;24239;48.058;10.486;2022-11-15T17:17:52;8.60;99.90
38458;DHT22;24239;48.058;10.486;2022-11-15T17:20:23;8.60;99.90